createdAt,value
2019-03-04T00:00:55.667Z,99232.55
2019-03-04T00:03:26.973Z,99234.75
2019-03-04T00:05:58.253Z,99234.30
2019-03-04T00:08:29.640Z,99217.95
2019-03-04T00:11:01.913Z,99200.77
2019-03-04T00:13:33.249Z,99193.73
2019-03-04T00:16:04.803Z,99186.27
2019-03-04T00:18:36.085Z,99178.76
2019-03-04T00:21:07.392Z,99176.11
2019-03-04T00:23:38.769Z,99181.84
2019-03-04T00:26:10.065Z,99162.04
2019-03-04T00:28:41.346Z,99158.97
2019-03-04T00:31:12.652Z,99162.95
2019-03-04T00:33:44.004Z,99155.00
2019-03-04T00:36:15.251Z,99159.44
2019-03-04T00:38:46.633Z,99158.98
2019-03-04T00:41:17.869Z,99151.95
2019-03-04T00:43:49.135Z,99151.08
2019-03-04T00:46:20.404Z,99149.34
2019-03-04T00:48:51.645Z,99148.46
2019-03-04T00:51:23.066Z,99148.89
2019-03-04T00:53:54.295Z,99151.98
2019-03-04T00:56:25.659Z,99156.82
2019-03-04T00:58:56.960Z,99155.48
2019-03-04T01:01:28.235Z,99160.73
2019-03-04T01:03:59.809Z,99162.93
2019-03-04T01:06:31.152Z,99166.89
2019-03-04T01:09:02.387Z,99164.72
2019-03-04T01:11:35.404Z,99172.66
2019-03-04T01:14:07.591Z,99169.63
2019-03-04T01:16:39.936Z,99168.36
2019-03-04T01:19:11.511Z,99164.44
2019-03-04T01:21:42.798Z,99149.97
2019-03-04T01:24:14.031Z,99135.06
2019-03-04T01:26:45.322Z,99131.58
2019-03-04T01:29:16.544Z,99133.83
2019-03-04T01:31:47.853Z,99131.59
2019-03-04T01:34:19.099Z,99138.17
2019-03-04T01:36:50.681Z,99124.89
2019-03-04T01:39:21.915Z,99141.91
2019-03-04T01:41:53.206Z,99144.48
2019-03-04T01:44:24.438Z,99139.09
2019-03-04T01:46:55.734Z,99131.56
2019-03-04T01:49:26.962Z,99114.73
2019-03-04T01:51:58.327Z,99093.05
2019-03-04T01:54:29.640Z,99078.30
2019-03-04T01:57:00.932Z,99087.90
2019-03-04T01:59:32.244Z,99090.03
2019-03-04T02:02:03.699Z,99101.27
2019-03-04T02:04:34.941Z,99118.44
2019-03-04T02:07:06.361Z,99096.96
2019-03-04T02:09:37.599Z,99102.06
2019-03-04T02:12:08.967Z,99103.83
2019-03-04T02:14:41.103Z,99106.12
2019-03-04T02:17:12.378Z,99097.78
2019-03-04T02:19:43.740Z,99102.81
2019-03-04T02:22:15.040Z,99094.72
2019-03-04T02:24:46.276Z,99099.69
2019-03-04T02:27:17.600Z,99089.16
2019-03-04T02:29:48.951Z,99073.52
2019-03-04T02:32:20.233Z,99045.16
2019-03-04T02:34:51.474Z,99015.45
2019-03-04T02:37:22.910Z,98997.19
2019-03-04T02:39:54.133Z,98975.98
2019-03-04T02:42:25.512Z,98967.70
2019-03-04T02:44:56.827Z,98962.94
2019-03-04T02:47:28.185Z,98971.52
2019-03-04T02:49:59.522Z,98973.46
2019-03-04T02:52:30.813Z,98943.59
2019-03-04T02:55:02.120Z,98920.69
2019-03-04T02:57:33.611Z,98903.97
2019-03-04T03:00:08.238Z,98897.86
2019-03-04T03:02:39.958Z,98872.81
2019-03-04T03:05:11.406Z,98856.13
2019-03-04T03:07:44.972Z,98844.78
2019-03-04T03:10:16.469Z,98843.14
2019-03-04T03:12:47.768Z,98851.58
2019-03-04T03:15:20.695Z,98871.83
2019-03-04T03:17:52.063Z,98871.00
2019-03-04T03:20:23.310Z,98874.63
2019-03-04T03:22:54.768Z,98870.63
2019-03-04T03:25:25.995Z,98868.44
2019-03-04T03:27:57.271Z,98876.79
2019-03-04T03:30:28.510Z,98857.41
2019-03-04T03:32:59.794Z,98865.77
2019-03-04T03:35:31.109Z,98864.38
2019-03-04T03:38:02.479Z,98847.27
2019-03-04T03:40:33.705Z,98828.36
2019-03-04T03:43:06.286Z,98830.16
2019-03-04T03:45:37.528Z,98822.28
2019-03-04T03:48:08.892Z,98828.52
2019-03-04T03:50:40.187Z,98823.73
2019-03-04T03:53:12.436Z,98823.80
2019-03-04T03:55:43.809Z,98820.33
2019-03-04T03:58:15.176Z,98817.27
2019-03-04T04:00:46.486Z,98833.09
2019-03-04T04:03:17.898Z,98834.63
2019-03-04T04:05:49.131Z,98823.45
2019-03-04T04:08:20.418Z,98832.75
2019-03-04T04:10:51.655Z,98824.95
2019-03-04T04:13:22.935Z,98819.42
2019-03-04T04:15:54.344Z,98820.83
2019-03-04T04:18:25.629Z,98830.62
2019-03-04T04:20:58.523Z,98824.98
2019-03-04T04:23:29.801Z,98823.22
2019-03-04T04:26:01.042Z,98799.95
2019-03-04T04:28:32.330Z,98797.80
2019-03-04T04:31:04.610Z,98780.70
2019-03-04T04:33:35.895Z,98764.91
2019-03-04T04:36:07.138Z,98761.02
2019-03-04T04:38:38.420Z,98749.66
2019-03-04T04:41:09.646Z,98718.89
2019-03-04T04:43:40.911Z,98722.89
2019-03-04T04:46:12.176Z,98710.64
2019-03-04T04:48:43.420Z,98705.41
2019-03-04T04:51:24.501Z,98716.03
2019-03-04T04:54:00.444Z,98722.69
2019-03-04T04:56:33.808Z,98721.81
2019-03-04T04:59:06.733Z,98709.48
2019-03-04T05:01:38.007Z,98698.08
2019-03-04T05:04:09.358Z,98692.40
2019-03-04T05:06:40.638Z,98694.64
2019-03-04T05:09:11.931Z,98696.00
2019-03-04T05:11:43.148Z,98696.12
2019-03-04T05:14:14.612Z,98699.31
2019-03-04T05:16:46.172Z,98678.31
2019-03-04T05:19:18.442Z,98669.63
2019-03-04T05:21:49.720Z,98663.98
2019-03-04T05:24:20.938Z,98632.41
2019-03-04T05:26:52.160Z,98622.37
2019-03-04T05:29:24.424Z,98601.36
2019-03-04T05:31:55.863Z,98637.36
2019-03-04T05:34:27.127Z,98666.73
2019-03-04T05:36:58.429Z,98639.83
2019-03-04T05:39:30.527Z,98637.97
2019-03-04T05:42:01.746Z,98617.27
2019-03-04T05:44:33.593Z,98593.36
2019-03-04T05:47:05.023Z,98581.48
2019-03-04T05:49:36.231Z,98562.57
2019-03-04T05:52:07.497Z,98564.58
2019-03-04T05:54:38.731Z,98564.61
2019-03-04T05:57:11.057Z,98585.34
2019-03-04T05:59:42.282Z,98607.39
2019-03-04T06:02:13.718Z,98609.96
2019-03-04T06:04:45.152Z,98625.95
2019-03-04T06:07:22.538Z,98620.48
2019-03-04T06:09:53.822Z,98613.78
2019-03-04T06:12:25.156Z,98621.25
2019-03-04T06:14:56.555Z,98624.26
2019-03-04T06:17:28.091Z,98635.56
2019-03-04T06:19:59.319Z,98636.06
2019-03-04T06:22:30.611Z,98632.16
2019-03-04T06:25:01.838Z,98637.38
2019-03-04T06:27:33.076Z,98625.03
2019-03-04T06:30:07.126Z,98636.80
2019-03-04T06:32:38.364Z,98645.05
2019-03-04T06:35:13.240Z,98668.45
2019-03-04T06:37:44.545Z,98696.45
2019-03-04T06:40:17.924Z,98723.30
2019-03-04T06:42:49.150Z,98709.12
2019-03-04T06:45:21.873Z,98712.83
2019-03-04T06:47:53.110Z,98698.26
2019-03-04T06:50:51.581Z,98684.33
2019-03-04T06:53:51.898Z,98677.38
2019-03-04T06:56:28.123Z,98699.55
2019-03-04T06:59:37.523Z,98664.70
2019-03-04T07:02:19.744Z,98637.43
2019-03-04T07:05:17.923Z,98620.16
2019-03-04T07:07:49.196Z,98608.23
2019-03-04T07:10:20.430Z,98562.52
2019-03-04T07:12:51.792Z,98563.05
2019-03-04T07:15:23.133Z,98551.37
2019-03-04T07:17:54.422Z,98531.36
2019-03-04T07:20:26.706Z,98539.52
2019-03-04T07:22:58.087Z,98561.49
2019-03-04T07:25:29.321Z,98625.59
2019-03-04T07:28:00.705Z,98611.23
2019-03-04T07:30:31.967Z,98591.67
2019-03-04T07:33:03.393Z,98553.15
2019-03-04T07:35:34.709Z,98581.36
2019-03-04T07:38:22.547Z,98551.61
2019-03-04T07:40:53.853Z,98532.54
2019-03-04T07:43:25.233Z,98547.53
2019-03-04T07:45:56.607Z,98536.23
2019-03-04T07:48:28.956Z,98529.89
2019-03-04T07:51:15.055Z,98519.33
2019-03-04T07:53:46.946Z,98540.67
2019-03-04T07:56:18.314Z,98558.19
2019-03-04T07:58:49.595Z,98556.27
2019-03-04T08:01:20.823Z,98553.20
2019-03-04T08:03:52.112Z,98569.57
2019-03-04T08:06:23.500Z,98579.95
2019-03-04T08:09:17.527Z,98561.80
2019-03-04T08:12:22.295Z,98578.77
2019-03-04T08:14:53.579Z,98567.05
2019-03-04T08:17:24.847Z,98564.08
2019-03-04T08:19:56.180Z,98562.34
2019-03-04T08:22:27.480Z,98580.95
2019-03-04T08:24:58.849Z,98556.62
2019-03-04T08:27:30.164Z,98594.56
2019-03-04T08:30:01.619Z,98585.98
2019-03-04T08:32:34.493Z,98628.00
2019-03-04T08:35:06.214Z,98558.14
2019-03-04T08:37:37.442Z,98596.13
2019-03-04T08:40:12.861Z,98611.95
2019-03-04T08:42:44.269Z,98632.67
2019-03-04T08:45:19.091Z,98619.69
2019-03-04T08:47:50.319Z,98640.54
2019-03-04T08:50:21.796Z,98645.52
2019-03-04T08:52:53.070Z,98689.06
2019-03-04T08:55:24.437Z,98678.21
2019-03-04T08:57:55.809Z,98694.53
2019-03-04T09:00:30.220Z,98702.63
2019-03-04T09:03:01.934Z,98734.88
2019-03-04T09:05:33.432Z,98748.86
2019-03-04T09:08:07.473Z,98731.39
2019-03-04T09:10:40.318Z,98728.27
2019-03-04T09:13:13.356Z,98747.65
2019-03-04T09:15:44.793Z,98724.73
2019-03-04T09:18:16.153Z,98737.56
2019-03-04T09:20:48.566Z,98745.06
2019-03-04T09:23:19.968Z,98740.47
2019-03-04T09:26:07.780Z,98722.20
2019-03-04T09:28:40.551Z,98716.75
2019-03-04T09:31:12.469Z,98717.97
2019-03-04T09:33:43.830Z,98717.10
2019-03-04T09:36:16.648Z,98700.61
2019-03-04T09:38:47.955Z,98703.14
2019-03-04T09:41:21.018Z,98694.22
2019-03-04T09:43:52.334Z,98715.61
2019-03-04T09:46:23.752Z,98721.39
2019-03-04T09:48:54.996Z,98705.66
2019-03-04T09:51:26.750Z,98714.33
2019-03-04T09:53:59.656Z,98698.86
2019-03-04T09:56:30.942Z,98696.36
2019-03-04T09:59:03.436Z,98691.66
2019-03-04T10:01:39.520Z,98717.23
2019-03-04T10:04:45.797Z,98721.19
2019-03-04T10:07:37.205Z,98719.03
2019-03-04T10:10:19.348Z,98712.67
2019-03-04T10:12:57.067Z,98746.03
2019-03-04T10:15:51.890Z,98749.39
2019-03-04T10:18:33.517Z,98746.80
2019-03-04T10:21:44.334Z,98741.59
2019-03-04T10:24:38.976Z,98757.88
2019-03-04T10:27:31.329Z,98767.84
2019-03-04T10:30:38.978Z,98743.36
2019-03-04T10:33:35.926Z,98736.05
2019-03-04T10:36:33.153Z,98718.34
2019-03-04T10:39:15.129Z,98741.94
2019-03-04T10:42:18.104Z,98742.34
2019-03-04T10:44:54.026Z,98754.16
2019-03-04T10:47:25.504Z,98736.68
2019-03-04T10:49:58.394Z,98736.58
2019-03-04T10:52:29.883Z,98767.70
2019-03-04T10:55:01.160Z,98761.11
2019-03-04T10:57:34.162Z,98762.77
2019-03-04T11:00:12.727Z,98737.77
2019-03-04T11:02:47.558Z,98734.48
2019-03-04T11:05:19.071Z,98725.81
2019-03-04T11:07:50.411Z,98727.30
2019-03-04T11:10:21.803Z,98720.53
2019-03-04T11:12:53.163Z,98703.45
2019-03-04T11:15:26.907Z,98693.02
2019-03-04T11:17:58.363Z,98712.50
2019-03-04T11:20:29.703Z,98727.41
2019-03-04T11:23:01.246Z,98714.09
2019-03-04T11:25:33.938Z,98708.59
2019-03-04T11:28:05.445Z,98688.64
2019-03-04T11:30:37.214Z,98681.43
2019-03-04T11:33:08.729Z,98667.10
2019-03-04T11:35:40.278Z,98685.94
2019-03-04T11:38:39.524Z,98688.97
2019-03-04T11:41:19.458Z,98683.42
2019-03-04T11:43:50.990Z,98685.68
2019-03-04T11:46:24.093Z,98686.32
2019-03-04T11:48:55.572Z,98690.44
2019-03-04T11:51:26.970Z,98693.50
2019-03-04T11:53:58.441Z,98693.50
2019-03-04T11:56:30.114Z,98674.61
2019-03-04T11:59:02.584Z,98658.77
2019-03-04T12:01:35.787Z,98669.08
2019-03-04T12:04:07.213Z,98659.87
2019-03-04T12:06:38.584Z,98665.27
2019-03-04T12:09:13.723Z,98653.23
2019-03-04T12:11:45.174Z,98645.41
2019-03-04T12:14:16.510Z,98649.30
2019-03-04T12:16:48.087Z,98658.08
2019-03-04T12:19:19.620Z,98654.73
2019-03-04T12:21:52.563Z,98641.11
2019-03-04T12:24:23.831Z,98648.48
2019-03-04T12:26:55.445Z,98656.95
2019-03-04T12:29:28.614Z,98640.31
2019-03-04T12:32:01.727Z,98627.25
2019-03-04T12:34:33.217Z,98625.73
2019-03-04T12:37:05.759Z,98615.18
2019-03-04T12:39:37.031Z,98626.33
2019-03-04T12:42:08.406Z,98629.18
2019-03-04T12:44:39.750Z,98610.03
2019-03-04T12:47:11.255Z,98619.17
2019-03-04T12:49:42.699Z,98652.87
2019-03-04T12:52:14.009Z,98646.04
2019-03-04T12:54:47.015Z,98623.72
2019-03-04T12:57:19.069Z,98651.84
2019-03-04T12:59:50.456Z,98629.03
2019-03-04T13:02:21.937Z,98621.25
2019-03-04T13:04:53.231Z,98628.88
2019-03-04T13:07:24.519Z,98625.03
2019-03-04T13:09:55.891Z,98663.36
2019-03-04T13:12:27.231Z,98636.53
2019-03-04T13:14:59.611Z,98611.50
2019-03-04T13:17:30.952Z,98610.01
2019-03-04T13:20:02.430Z,98592.22
2019-03-04T13:22:33.770Z,98600.16
2019-03-04T13:25:06.799Z,98588.12
2019-03-04T13:27:38.145Z,98566.52
2019-03-04T13:30:17.126Z,98572.12
2019-03-04T13:32:48.409Z,98592.59
2019-03-04T13:35:33.284Z,98600.56
2019-03-04T13:38:06.493Z,98608.24
2019-03-04T13:40:38.527Z,98604.16
2019-03-04T13:43:10.180Z,98631.36
2019-03-04T13:45:42.648Z,98656.73
2019-03-04T13:48:14.086Z,98675.52
2019-03-04T13:50:45.836Z,98691.13
2019-03-04T13:53:17.250Z,98665.74
2019-03-04T13:55:48.665Z,98682.17
2019-03-04T13:58:20.571Z,98676.59
2019-03-04T14:00:52.081Z,98651.83
2019-03-04T14:03:25.816Z,98668.02
2019-03-04T14:05:57.219Z,98639.33
2019-03-04T14:08:28.655Z,98656.92
2019-03-04T14:11:03.181Z,98680.40
2019-03-04T14:13:34.514Z,98691.86
2019-03-04T14:16:06.129Z,98714.38
2019-03-04T14:18:37.444Z,98734.99
2019-03-04T14:21:08.852Z,98742.76
2019-03-04T14:23:40.088Z,98700.67
2019-03-04T14:26:11.574Z,98711.22
2019-03-04T14:28:44.522Z,98713.03
2019-03-04T14:31:18.786Z,98717.89
2019-03-04T14:33:50.152Z,98719.26
2019-03-04T14:36:21.536Z,98748.20
2019-03-04T14:38:54.450Z,98771.11
2019-03-04T14:41:25.902Z,98770.44
2019-03-04T14:43:57.348Z,98785.95
2019-03-04T14:46:28.683Z,98781.68
2019-03-04T14:49:00.042Z,98791.41
2019-03-04T14:51:32.007Z,98757.20
2019-03-04T14:54:03.247Z,98746.09
2019-03-04T14:56:35.908Z,98741.89
2019-03-04T14:59:10.808Z,98722.38
2019-03-04T15:01:41.973Z,98725.80
2019-03-04T15:04:13.377Z,98718.28
2019-03-04T15:06:44.812Z,98729.88
2019-03-04T15:09:16.270Z,98722.13
2019-03-04T15:11:47.509Z,98731.27
2019-03-04T15:14:20.883Z,98717.69
2019-03-04T15:16:52.130Z,98703.63
2019-03-04T15:19:23.436Z,98725.06
2019-03-04T15:21:57.297Z,98719.87
2019-03-04T15:24:28.621Z,98725.98
2019-03-04T15:27:00.027Z,98742.14
2019-03-04T15:29:33.259Z,98717.95
2019-03-04T15:32:04.619Z,98748.67
2019-03-04T15:34:36.770Z,98737.53
2019-03-04T15:37:08.043Z,98757.56
2019-03-04T15:39:39.337Z,98778.70
2019-03-04T15:42:10.625Z,98797.63
2019-03-04T15:44:42.098Z,98805.67
2019-03-04T15:47:13.393Z,98811.84
2019-03-04T15:49:44.827Z,98820.64
2019-03-04T15:52:16.316Z,98862.70
2019-03-04T15:54:47.739Z,98869.64
2019-03-04T15:57:19.092Z,98888.14
2019-03-04T15:59:50.571Z,98910.68
2019-03-04T16:02:23.492Z,98928.28
2019-03-04T16:04:54.870Z,98942.73
2019-03-04T16:07:26.194Z,98960.27
2019-03-04T16:09:57.530Z,98988.13
2019-03-04T16:12:29.218Z,98998.27
2019-03-04T16:15:00.578Z,99009.27
2019-03-04T16:17:32.181Z,99011.48
2019-03-04T16:20:04.847Z,99052.74
2019-03-04T16:22:37.693Z,99047.95
2019-03-04T16:25:11.793Z,99055.42
2019-03-04T16:27:44.284Z,99077.83
2019-03-04T16:30:23.689Z,99067.72
2019-03-04T16:32:55.050Z,99085.71
2019-03-04T16:35:28.476Z,99085.28
2019-03-04T16:37:59.845Z,99094.92
2019-03-04T16:40:33.170Z,99104.14
2019-03-04T16:43:04.522Z,99109.41
2019-03-04T16:45:38.382Z,99118.17
2019-03-04T16:48:09.712Z,99122.13
2019-03-04T16:50:46.853Z,99140.09
2019-03-04T16:53:36.206Z,99137.91
2019-03-04T16:56:07.544Z,99146.67
2019-03-04T16:58:38.760Z,99164.21
2019-03-04T17:01:14.140Z,99168.59
2019-03-04T17:03:45.500Z,99171.22
2019-03-04T17:06:17.431Z,99168.15
2019-03-04T17:08:48.910Z,99183.92
2019-03-04T17:11:20.244Z,99188.74
2019-03-04T17:13:51.589Z,99192.24
2019-03-04T17:16:23.014Z,99208.00
2019-03-04T17:18:54.371Z,99205.36
2019-03-04T17:21:25.857Z,99219.38
2019-03-04T17:23:58.955Z,99219.36
2019-03-04T17:26:30.362Z,99219.36
2019-03-04T17:29:04.888Z,99227.65
2019-03-04T17:31:36.303Z,99241.65
2019-03-04T17:34:07.725Z,99240.32
2019-03-04T17:36:39.845Z,99249.95
2019-03-04T17:39:11.137Z,99242.93
2019-03-04T17:41:47.668Z,99253.43
2019-03-04T17:44:51.587Z,99252.56
2019-03-04T17:47:36.442Z,99259.99
2019-03-04T17:50:19.942Z,99260.86
2019-03-04T17:52:51.351Z,99266.98
2019-03-04T17:55:22.796Z,99273.52
2019-03-04T17:57:54.222Z,99271.73
2019-03-04T18:00:25.643Z,99262.09
2019-03-04T18:02:57.200Z,99269.55
2019-03-04T18:05:33.226Z,99273.48
2019-03-04T18:08:04.705Z,99272.58
2019-03-04T18:10:36.177Z,99282.63
2019-03-04T18:13:11.499Z,99291.34
2019-03-04T18:15:44.091Z,99293.94
2019-03-04T18:18:15.651Z,99307.08
2019-03-04T18:20:47.011Z,99321.44
2019-03-04T18:23:18.465Z,99321.94
2019-03-04T18:25:57.215Z,99330.25
2019-03-04T18:28:58.401Z,99326.30
2019-03-04T18:32:21.039Z,99339.44
2019-03-04T18:35:00.000Z,99339.84
2019-03-04T18:38:00.098Z,99352.51
2019-03-04T18:41:02.762Z,99355.13
2019-03-04T18:43:55.403Z,99357.31
2019-03-04T18:46:36.888Z,99358.19
2019-03-04T18:49:09.917Z,99358.19
2019-03-04T18:51:41.334Z,99357.71
2019-03-04T18:54:31.032Z,99361.20
2019-03-04T18:57:02.577Z,99366.45
2019-03-04T18:59:33.869Z,99362.92
2019-03-04T19:02:05.518Z,99371.68
2019-03-04T19:04:36.971Z,99373.01
2019-03-04T19:07:08.325Z,99365.59
2019-03-04T19:09:39.756Z,99369.53
2019-03-04T19:12:11.234Z,99367.34
2019-03-04T19:14:42.529Z,99366.03
2019-03-04T19:17:13.822Z,99367.81
2019-03-04T19:19:45.400Z,99364.75
2019-03-04T19:22:16.761Z,99371.31
2019-03-04T19:24:48.191Z,99380.52
2019-03-04T19:27:19.533Z,99390.13
2019-03-04T19:29:50.898Z,99386.20
2019-03-04T19:32:22.323Z,99396.27
2019-03-04T19:34:53.750Z,99391.00
2019-03-04T19:37:25.045Z,99394.06
2019-03-04T19:39:56.405Z,99397.56
2019-03-04T19:42:27.750Z,99391.87
2019-03-04T19:44:59.100Z,99389.25
2019-03-04T19:47:30.461Z,99385.75
2019-03-04T19:50:01.760Z,99391.01
2019-03-04T19:52:33.266Z,99388.81
2019-03-04T19:55:18.983Z,99397.59
2019-03-04T19:57:50.285Z,99399.32
2019-03-04T20:00:26.044Z,99404.56
2019-03-04T20:02:57.579Z,99407.17
2019-03-04T20:05:34.218Z,99404.98
2019-03-04T20:08:05.742Z,99401.47
2019-03-04T20:10:37.387Z,99418.11
2019-03-04T20:13:08.757Z,99417.24
2019-03-04T20:15:40.259Z,99415.52
2019-03-04T20:18:11.630Z,99409.39
2019-03-04T20:20:43.193Z,99411.16
2019-03-04T20:23:14.747Z,99402.41
2019-03-04T20:25:46.239Z,99394.97
2019-03-04T20:28:17.769Z,99391.45
2019-03-04T20:30:49.177Z,99399.80
2019-03-04T20:33:20.662Z,99401.55
2019-03-04T20:35:52.017Z,99410.30
2019-03-04T20:38:41.410Z,99408.63
2019-03-04T20:41:12.773Z,99408.66
2019-03-04T20:43:44.231Z,99417.86
2019-03-04T20:46:15.722Z,99412.19
2019-03-04T20:48:47.088Z,99425.77
2019-03-04T20:51:18.472Z,99423.59
2019-03-04T20:53:51.370Z,99430.16
2019-03-04T20:56:22.733Z,99433.23
2019-03-04T20:58:54.092Z,99431.93
2019-03-04T21:01:26.042Z,99433.73
2019-03-04T21:03:57.402Z,99434.64
2019-03-04T21:06:28.895Z,99439.91
2019-03-04T21:09:00.254Z,99430.27
2019-03-04T21:11:33.905Z,99437.72
2019-03-04T21:14:05.342Z,99437.69
2019-03-04T21:16:36.760Z,99442.47
2019-03-04T21:19:09.255Z,99450.34
2019-03-04T21:21:40.951Z,99452.03
2019-03-04T21:24:12.306Z,99459.01
2019-03-04T21:26:43.914Z,99455.02
2019-03-04T21:29:30.462Z,99458.89
2019-03-04T21:32:17.597Z,99466.30
2019-03-04T21:35:24.081Z,99461.47
2019-03-04T21:37:57.136Z,99476.78
2019-03-04T21:40:44.709Z,99471.08
2019-03-04T21:43:26.272Z,99464.97
2019-03-04T21:46:21.231Z,99458.88
2019-03-04T21:48:57.648Z,99466.33
2019-03-04T21:51:48.554Z,99471.66
2019-03-04T21:54:20.104Z,99467.27
2019-03-04T21:57:13.523Z,99470.69
2019-03-04T21:59:45.026Z,99462.04
2019-03-04T22:02:26.667Z,99458.45
2019-03-04T22:05:01.026Z,99467.61
2019-03-04T22:07:34.085Z,99456.25
2019-03-04T22:10:09.382Z,99466.38
2019-03-04T22:12:41.003Z,99472.12
2019-03-04T22:15:12.703Z,99474.27
2019-03-04T22:17:44.064Z,99469.02
2019-03-04T22:20:16.877Z,99474.21
2019-03-04T22:22:48.168Z,99468.13
2019-03-04T22:25:19.531Z,99474.78
2019-03-04T22:27:50.931Z,99474.77
2019-03-04T22:30:22.400Z,99473.05
2019-03-04T22:32:53.751Z,99471.78
2019-03-04T22:35:25.163Z,99474.87
2019-03-04T22:37:57.755Z,99489.77
2019-03-04T22:40:29.942Z,99487.25
2019-03-04T22:43:01.247Z,99474.09
2019-03-04T22:45:32.655Z,99496.08
2019-03-04T22:48:04.176Z,99482.51
2019-03-04T22:50:35.733Z,99487.33
2019-03-04T22:53:07.100Z,99498.68
2019-03-04T22:55:40.674Z,99496.09
2019-03-04T22:58:11.980Z,99488.19
2019-03-04T23:00:59.494Z,99482.44
2019-03-04T23:03:37.990Z,99491.19
2019-03-04T23:06:29.178Z,99482.41
2019-03-04T23:09:00.488Z,99494.23
2019-03-04T23:11:33.464Z,99502.94
2019-03-04T23:14:09.459Z,99499.42
2019-03-04T23:16:40.757Z,99490.69
2019-03-04T23:19:12.079Z,99523.48
2019-03-04T23:21:43.424Z,99518.29
2019-03-04T23:24:14.710Z,99505.59
2019-03-04T23:26:46.058Z,99506.84
2019-03-04T23:29:17.406Z,99508.59
2019-03-04T23:31:48.698Z,99513.42
2019-03-04T23:34:20.065Z,99507.73
2019-03-04T23:36:52.469Z,99510.73
2019-03-04T23:39:23.689Z,99526.94
2019-03-04T23:41:54.959Z,99515.53
2019-03-04T23:44:26.176Z,99508.96
2019-03-04T23:46:57.568Z,99515.96
2019-03-04T23:49:28.784Z,99514.62
2019-03-04T23:52:01.205Z,99524.61
2019-03-04T23:54:32.503Z,99532.83
2019-03-04T23:57:03.778Z,99524.03
2019-03-04T23:59:34.998Z,99535.36
